createdAt,value
2018-05-14T00:01:11.972Z,56.13
2018-05-14T00:03:40.004Z,56.00
2018-05-14T00:06:08.429Z,48.77
2018-05-14T00:08:37.108Z,47.77
2018-05-14T00:11:04.925Z,50.50
2018-05-14T00:13:32.536Z,49.43
2018-05-14T00:16:01.012Z,51.73
2018-05-14T00:18:28.592Z,41.33
2018-05-14T00:20:57.265Z,48.73
2018-05-14T00:23:25.732Z,48.17
2018-05-14T00:25:53.285Z,55.50
2018-05-14T00:28:21.061Z,56.80
2018-05-14T00:30:48.719Z,54.67
2018-05-14T00:33:16.477Z,50.37
2018-05-14T00:35:44.665Z,44.63
2018-05-14T00:38:12.221Z,52.93
2018-05-14T00:40:39.989Z,37.30
2018-05-14T00:43:08.565Z,54.33
2018-05-14T00:45:36.332Z,55.10
2018-05-14T00:48:04.096Z,40.73
2018-05-14T00:50:32.173Z,61.43
2018-05-14T00:53:00.689Z,61.07
2018-05-14T00:55:28.308Z,50.40
2018-05-14T00:57:56.071Z,56.57
2018-05-14T01:00:23.837Z,50.43
2018-05-14T01:02:51.508Z,45.27
2018-05-14T01:05:20.180Z,63.33
2018-05-14T01:07:47.944Z,46.33
2018-05-14T01:10:15.655Z,42.93
2018-05-14T01:12:43.498Z,36.20
2018-05-14T01:15:11.861Z,46.07
2018-05-14T01:17:40.327Z,53.37
2018-05-14T01:20:08.243Z,44.80
2018-05-14T01:22:36.011Z,37.87
2018-05-14T01:25:03.708Z,44.17
2018-05-14T01:27:31.283Z,48.27
2018-05-14T01:29:59.352Z,45.90
2018-05-14T01:32:27.836Z,50.40
2018-05-14T01:34:55.605Z,42.27
2018-05-14T01:37:24.079Z,30.23
2018-05-14T01:39:51.851Z,32.57
2018-05-14T01:42:20.224Z,32.83
2018-05-14T01:44:48.401Z,29.17
2018-05-14T01:47:16.160Z,26.13
2018-05-14T01:49:43.924Z,23.60
2018-05-14T01:52:11.793Z,19.90
2018-05-14T01:54:39.551Z,12.70
2018-05-14T01:57:07.217Z,14.10
2018-05-14T01:59:35.286Z,13.63
2018-05-14T02:02:03.045Z,11.80
2018-05-14T02:04:30.721Z,12.03
2018-05-14T02:06:59.717Z,13.20
2018-05-14T02:09:28.185Z,9.50
2018-05-14T02:11:55.944Z,10.27
2018-05-14T02:14:23.508Z,9.43
2018-05-14T02:16:51.478Z,7.70
2018-05-14T02:19:19.131Z,8.73
2018-05-14T02:21:46.696Z,7.37
2018-05-14T02:24:14.356Z,7.60
2018-05-14T02:26:42.016Z,6.47
2018-05-14T02:29:09.685Z,6.87
2018-05-14T02:31:38.059Z,8.97
2018-05-14T02:34:05.712Z,8.90
2018-05-14T02:36:34.201Z,8.77
2018-05-14T02:39:01.869Z,10.10
2018-05-14T02:41:30.185Z,9.80
2018-05-14T02:43:57.897Z,12.17
2018-05-14T02:46:25.502Z,13.17
2018-05-14T02:48:53.132Z,12.60
2018-05-14T02:51:21.499Z,9.20
2018-05-14T02:53:49.084Z,12.73
2018-05-14T02:56:17.441Z,11.97
2018-05-14T02:58:45.209Z,10.40
2018-05-14T03:01:13.680Z,11.77
2018-05-14T03:03:41.547Z,12.30
2018-05-14T03:06:09.208Z,12.33
2018-05-14T03:08:37.281Z,13.67
2018-05-14T03:11:05.041Z,16.77
2018-05-14T03:13:32.646Z,15.23
2018-05-14T03:16:00.799Z,15.03
2018-05-14T03:18:29.256Z,14.87
2018-05-14T03:20:57.129Z,17.60
2018-05-14T03:23:25.411Z,17.57
2018-05-14T03:25:53.885Z,17.20
2018-05-14T03:28:22.260Z,22.50
2018-05-14T03:30:50.129Z,21.13
2018-05-14T03:33:18.442Z,25.33
2018-05-14T03:35:46.159Z,22.47
2018-05-14T03:38:13.824Z,18.83
2018-05-14T03:40:41.594Z,18.60
2018-05-14T03:43:09.352Z,23.33
2018-05-14T03:45:37.117Z,30.77
2018-05-14T03:48:04.885Z,22.30
2018-05-14T03:50:33.261Z,20.80
2018-05-14T03:53:01.949Z,23.43
2018-05-14T03:55:29.508Z,28.43
2018-05-14T03:57:57.897Z,26.73
2018-05-14T04:00:38.348Z,31.50
2018-05-14T04:03:18.709Z,27.57
2018-05-14T04:05:59.270Z,31.83
2018-05-14T04:08:27.072Z,31.60
2018-05-14T04:10:54.463Z,30.30
2018-05-14T04:13:22.352Z,28.80
2018-05-14T04:15:49.961Z,30.77
2018-05-14T04:18:17.516Z,34.83
2018-05-14T04:20:45.337Z,37.30
2018-05-14T04:23:12.916Z,33.03
2018-05-14T04:25:41.374Z,31.27
2018-05-14T04:28:08.905Z,37.17
2018-05-14T04:30:36.391Z,33.60
2018-05-14T04:33:04.181Z,35.33
2018-05-14T04:35:32.164Z,29.60
2018-05-14T04:37:59.773Z,37.77
2018-05-14T04:40:27.385Z,44.67
2018-05-14T04:42:54.905Z,38.00
2018-05-14T04:45:22.484Z,43.53
2018-05-14T04:47:50.949Z,42.83
2018-05-14T04:50:19.193Z,44.37
2018-05-14T04:52:46.776Z,38.90
2018-05-14T04:55:14.648Z,43.20
2018-05-14T04:57:43.032Z,35.73
2018-05-14T05:00:11.604Z,41.13
2018-05-14T05:02:39.269Z,47.73
2018-05-14T05:05:07.032Z,39.77
2018-05-14T05:07:34.909Z,45.90
2018-05-14T05:10:03.285Z,42.50
2018-05-14T05:12:31.546Z,53.27
2018-05-14T05:14:59.080Z,44.97
2018-05-14T05:17:26.557Z,51.13
2018-05-14T05:19:54.066Z,54.90
2018-05-14T05:22:21.564Z,49.97
2018-05-14T05:24:49.036Z,53.60
2018-05-14T05:27:16.693Z,39.00
2018-05-14T05:29:44.160Z,44.73
2018-05-14T05:32:11.646Z,49.47
2018-05-14T05:34:39.892Z,50.50
2018-05-14T05:37:07.401Z,51.03
2018-05-14T05:39:34.908Z,43.83
2018-05-14T05:42:02.481Z,55.93
2018-05-14T05:44:30.815Z,47.73
2018-05-14T05:46:58.453Z,46.93
2018-05-14T05:49:25.985Z,45.17
2018-05-14T05:51:56.379Z,41.63
2018-05-14T05:54:24.637Z,43.83
2018-05-14T05:56:53.065Z,46.93
2018-05-14T05:59:20.657Z,49.67
2018-05-14T06:01:48.248Z,47.27
2018-05-14T06:04:16.428Z,41.17
2018-05-14T06:06:44.038Z,39.17
2018-05-14T06:09:11.507Z,44.57
2018-05-14T06:11:39.062Z,45.40
2018-05-14T06:14:06.561Z,48.97
2018-05-14T06:16:34.335Z,44.03
2018-05-14T06:19:01.896Z,42.00
2018-05-14T06:21:30.132Z,43.87
2018-05-14T06:23:58.020Z,45.40
2018-05-14T06:26:25.488Z,43.60
2018-05-14T06:28:53.085Z,46.47
2018-05-14T06:31:20.573Z,40.87
2018-05-14T06:33:48.101Z,38.87
2018-05-14T06:36:15.573Z,38.93
2018-05-14T06:38:43.089Z,37.33
2018-05-14T06:41:11.560Z,38.30
2018-05-14T06:43:39.040Z,36.50
2018-05-14T06:46:07.301Z,37.60
2018-05-14T06:48:35.893Z,44.30
2018-05-14T06:51:04.150Z,49.43
2018-05-14T06:53:31.724Z,39.23
2018-05-14T06:56:00.114Z,38.30
2018-05-14T06:58:28.173Z,37.70
2018-05-14T07:00:56.415Z,40.93
2018-05-14T07:03:24.648Z,40.17
2018-05-14T07:05:52.220Z,36.87
2018-05-14T07:08:19.740Z,37.90
2018-05-14T07:10:48.016Z,36.30
2018-05-14T07:13:16.341Z,36.17
2018-05-14T07:15:43.844Z,33.83
2018-05-14T07:18:11.388Z,37.87
2018-05-14T07:20:38.871Z,34.50
2018-05-14T07:23:07.448Z,34.27
2018-05-14T07:25:35.010Z,40.83
2018-05-14T07:28:03.485Z,32.60
2018-05-14T07:30:31.733Z,34.17
2018-05-14T07:32:59.200Z,34.20
2018-05-14T07:35:27.279Z,33.33
2018-05-14T07:37:54.753Z,29.77
2018-05-14T07:40:23.008Z,30.37
2018-05-14T07:42:50.579Z,28.03
2018-05-14T07:45:18.854Z,27.93
2018-05-14T07:47:47.093Z,28.77
2018-05-14T07:50:15.989Z,29.43
2018-05-14T07:52:43.477Z,29.10
2018-05-14T07:55:11.753Z,30.23
2018-05-14T07:57:40.452Z,34.10
2018-05-14T08:00:08.717Z,32.17
2018-05-14T08:02:36.962Z,33.57
2018-05-14T08:05:05.469Z,30.13
2018-05-14T08:07:33.011Z,33.53
2018-05-14T08:10:00.480Z,32.07
2018-05-14T08:12:27.960Z,32.80
2018-05-14T08:14:56.624Z,33.17
2018-05-14T08:17:24.184Z,35.87
2018-05-14T08:19:52.462Z,32.93
2018-05-14T08:22:21.252Z,33.83
2018-05-14T08:24:49.493Z,35.43
2018-05-14T08:27:16.963Z,31.57
2018-05-14T08:29:44.852Z,33.13
2018-05-14T08:32:12.408Z,32.57
2018-05-14T08:34:40.693Z,36.30
2018-05-14T08:37:09.184Z,35.00
2018-05-14T08:39:37.449Z,30.60
2018-05-14T08:42:05.721Z,33.93
2018-05-14T08:44:33.988Z,33.40
2018-05-14T08:47:01.952Z,30.87
2018-05-14T08:49:29.488Z,31.47
2018-05-14T08:51:57.745Z,33.77
2018-05-14T08:54:25.307Z,37.47
2018-05-14T08:56:53.957Z,37.20
2018-05-14T08:59:22.201Z,35.57
2018-05-14T09:01:49.776Z,37.50
2018-05-14T09:04:18.251Z,44.43
2018-05-14T09:06:45.720Z,37.13
2018-05-14T09:09:14.003Z,40.17
2018-05-14T09:11:42.257Z,33.93
2018-05-14T09:14:09.819Z,36.60
2018-05-14T09:16:37.689Z,39.87
2018-05-14T09:19:05.937Z,38.93
2018-05-14T09:21:33.417Z,35.80
2018-05-14T09:24:02.079Z,32.43
2018-05-14T09:26:29.557Z,32.90
2018-05-14T09:28:57.030Z,33.23
2018-05-14T09:31:25.365Z,36.13
2018-05-14T09:33:52.848Z,35.37
2018-05-14T09:36:20.820Z,37.30
2018-05-14T09:38:48.398Z,31.97
2018-05-14T09:41:18.036Z,34.33
2018-05-14T09:43:45.953Z,37.03
2018-05-14T09:46:13.513Z,32.57
2018-05-14T09:48:40.980Z,32.30
2018-05-14T09:51:09.244Z,34.77
2018-05-14T09:53:37.495Z,29.80
2018-05-14T09:56:05.029Z,32.83
2018-05-14T09:58:32.535Z,33.67
2018-05-14T10:01:00.137Z,32.60
2018-05-14T10:03:28.067Z,28.67
2018-05-14T10:05:56.340Z,29.50
2018-05-14T10:08:23.963Z,33.20
2018-05-14T10:10:51.442Z,31.57
2018-05-14T10:13:18.929Z,28.13
2018-05-14T10:15:47.423Z,30.33
2018-05-14T10:18:14.958Z,29.83
2018-05-14T10:20:43.228Z,27.83
2018-05-14T10:23:11.001Z,27.97
2018-05-14T10:25:39.242Z,27.03
2018-05-14T10:28:06.992Z,24.83
2018-05-14T10:30:34.462Z,27.17
2018-05-14T10:33:01.956Z,24.50
2018-05-14T10:35:30.262Z,24.23
2018-05-14T10:37:57.728Z,24.43
2018-05-14T10:40:25.240Z,23.40
2018-05-14T10:42:54.360Z,21.57
2018-05-14T10:45:21.892Z,19.80
2018-05-14T10:47:50.172Z,19.97
2018-05-14T10:50:18.436Z,19.90
2018-05-14T10:52:45.990Z,20.90
2018-05-14T10:55:13.459Z,23.80
2018-05-14T10:57:41.025Z,18.90
2018-05-14T11:00:09.811Z,20.20
2018-05-14T11:02:37.290Z,18.90
2018-05-14T11:05:04.920Z,19.37
2018-05-14T11:07:33.078Z,18.33
2018-05-14T11:10:00.567Z,18.00
2018-05-14T11:12:28.888Z,19.53
2018-05-14T11:14:56.370Z,19.67
2018-05-14T11:17:23.953Z,22.90
2018-05-14T11:19:52.530Z,23.50
2018-05-14T11:22:20.172Z,25.13
2018-05-14T11:24:47.644Z,25.97
2018-05-14T11:27:15.210Z,26.63
2018-05-14T11:29:43.701Z,27.13
2018-05-14T11:32:11.937Z,26.60
2018-05-14T11:34:39.408Z,25.20
2018-05-14T11:37:07.013Z,28.47
2018-05-14T11:39:34.545Z,25.67
2018-05-14T11:42:02.809Z,26.53
2018-05-14T11:44:30.378Z,24.07
2018-05-14T11:46:58.697Z,25.90
2018-05-14T11:49:26.316Z,24.93
2018-05-14T11:51:54.556Z,26.67
2018-05-14T11:54:22.024Z,27.07
2018-05-14T11:56:49.796Z,19.50
2018-05-14T11:59:17.284Z,9.73
2018-05-14T12:01:45.540Z,21.43
2018-05-14T12:04:14.125Z,18.97
2018-05-14T12:06:41.699Z,18.73
2018-05-14T12:09:09.966Z,19.87
2018-05-14T12:11:38.336Z,18.47
2018-05-14T12:14:05.804Z,16.30
2018-05-14T12:16:34.097Z,15.77
2018-05-14T12:19:01.881Z,16.97
2018-05-14T12:21:29.396Z,21.73
2018-05-14T12:23:57.974Z,19.77
2018-05-14T12:26:25.553Z,16.13
2018-05-14T12:28:53.792Z,14.23
2018-05-14T12:31:21.683Z,18.17
2018-05-14T12:33:49.255Z,15.37
2018-05-14T12:36:17.505Z,12.90
2018-05-14T12:38:45.276Z,21.77
2018-05-14T12:41:13.109Z,17.00
2018-05-14T12:43:40.596Z,19.97
2018-05-14T12:46:08.251Z,15.73
2018-05-14T12:48:35.830Z,17.00
2018-05-14T12:51:04.096Z,19.43
2018-05-14T12:53:32.373Z,15.87
2018-05-14T12:56:00.758Z,14.33
2018-05-14T12:58:29.256Z,17.73
2018-05-14T13:00:56.735Z,14.83
2018-05-14T13:03:24.253Z,14.40
2018-05-14T13:05:52.819Z,14.00
2018-05-14T13:08:20.424Z,16.00
2018-05-14T13:10:47.983Z,16.57
2018-05-14T13:13:15.712Z,17.17
2018-05-14T13:15:43.270Z,14.97
2018-05-14T13:18:10.749Z,13.30
2018-05-14T13:20:38.381Z,15.70
2018-05-14T13:23:05.957Z,14.90
2018-05-14T13:25:34.229Z,14.77
2018-05-14T13:28:03.221Z,17.33
2018-05-14T13:30:31.527Z,15.27
2018-05-14T13:32:59.051Z,17.63
2018-05-14T13:35:27.361Z,15.40
2018-05-14T13:37:55.018Z,13.03
2018-05-14T13:40:22.468Z,14.20
2018-05-14T13:42:50.088Z,12.03
2018-05-14T13:45:17.569Z,14.77
2018-05-14T13:47:45.809Z,13.77
2018-05-14T13:50:13.427Z,14.03
2018-05-14T13:52:40.957Z,15.67
2018-05-14T13:55:09.197Z,13.47
2018-05-14T13:57:36.827Z,13.90
2018-05-14T14:00:04.346Z,13.90
2018-05-14T14:02:31.848Z,13.10
2018-05-14T14:04:59.524Z,13.07
2018-05-14T14:07:27.044Z,12.00
2018-05-14T14:09:55.311Z,15.03
2018-05-14T14:12:23.880Z,13.10
2018-05-14T14:14:51.461Z,13.70
2018-05-14T14:17:19.698Z,14.97
2018-05-14T14:19:47.294Z,12.40
2018-05-14T14:22:15.796Z,13.67
2018-05-14T14:24:43.277Z,10.97
2018-05-14T14:27:10.770Z,12.07
2018-05-14T14:29:38.474Z,13.13
2018-05-14T14:32:05.920Z,13.70
2018-05-14T14:34:33.457Z,12.00
2018-05-14T14:37:01.261Z,12.00
2018-05-14T14:39:28.733Z,13.90
2018-05-14T14:41:56.248Z,13.13
2018-05-14T14:44:24.488Z,12.60
2018-05-14T14:46:52.172Z,13.50
2018-05-14T14:49:19.684Z,14.07
2018-05-14T14:51:47.196Z,12.27
2018-05-14T14:54:15.491Z,11.30
2018-05-14T14:56:43.958Z,12.23
2018-05-14T14:59:12.525Z,12.37
2018-05-14T15:01:39.988Z,11.67
2018-05-14T15:04:07.553Z,11.13
2018-05-14T15:06:35.957Z,11.70
2018-05-14T15:09:03.436Z,10.63
2018-05-14T15:11:31.056Z,13.57
2018-05-14T15:13:59.428Z,9.17
2018-05-14T15:16:27.715Z,11.43
2018-05-14T15:18:55.948Z,10.00
2018-05-14T15:21:23.489Z,11.63
2018-05-14T15:23:50.987Z,11.17
2018-05-14T15:26:18.557Z,11.83
2018-05-14T15:28:47.034Z,9.60
2018-05-14T15:31:14.513Z,10.63
2018-05-14T15:33:42.146Z,11.10
2018-05-14T15:36:09.717Z,10.77
2018-05-14T15:38:38.141Z,10.50
2018-05-14T15:41:05.690Z,12.73
2018-05-14T15:43:33.164Z,12.93
2018-05-14T15:46:00.653Z,14.87
2018-05-14T15:48:28.536Z,13.53
2018-05-14T15:50:56.803Z,12.70
2018-05-14T15:53:24.283Z,15.37
2018-05-14T15:55:51.924Z,14.90
2018-05-14T15:58:20.197Z,12.30
2018-05-14T16:00:47.694Z,12.37
2018-05-14T16:03:15.319Z,15.53
2018-05-14T16:05:43.715Z,14.23
2018-05-14T16:08:12.061Z,16.57
2018-05-14T16:10:39.544Z,11.87
2018-05-14T16:13:08.216Z,14.03
2018-05-14T16:15:35.786Z,40.23
2018-05-14T16:18:04.260Z,23.37
2018-05-14T16:20:31.886Z,30.17
2018-05-14T16:22:59.365Z,23.23
2018-05-14T16:25:26.940Z,18.40
2018-05-14T16:27:54.805Z,18.17
2018-05-14T16:30:23.044Z,18.90
2018-05-14T16:32:50.544Z,18.27
2018-05-14T16:35:19.324Z,27.10
2018-05-14T16:37:46.805Z,26.73
2018-05-14T16:40:14.404Z,23.83
2018-05-14T16:42:41.882Z,18.10
2018-05-14T16:45:09.664Z,18.57
2018-05-14T16:47:37.641Z,18.50
2018-05-14T16:50:06.124Z,16.13
2018-05-14T16:52:34.357Z,17.50
2018-05-14T16:55:02.152Z,15.70
2018-05-14T16:57:30.469Z,16.43
2018-05-14T16:59:58.087Z,20.70
2018-05-14T17:02:26.439Z,16.17
2018-05-14T17:04:53.914Z,18.83
2018-05-14T17:07:21.409Z,18.03
2018-05-14T17:09:49.052Z,19.93
2018-05-14T17:12:17.327Z,20.27
2018-05-14T17:14:45.568Z,16.67
2018-05-14T17:17:13.487Z,18.43
2018-05-14T17:19:40.973Z,15.27
2018-05-14T17:22:08.449Z,14.00
2018-05-14T17:24:36.745Z,14.70
2018-05-14T17:27:04.214Z,14.30
2018-05-14T17:29:32.492Z,17.80
2018-05-14T17:32:01.166Z,12.67
2018-05-14T17:34:29.482Z,12.17
2018-05-14T17:36:57.100Z,11.00
2018-05-14T17:39:25.223Z,9.77
2018-05-14T17:41:52.736Z,10.43
2018-05-14T17:44:20.336Z,9.97
2018-05-14T17:46:47.853Z,11.70
2018-05-14T17:49:15.360Z,9.60
2018-05-14T17:51:42.825Z,9.57
2018-05-14T17:54:10.364Z,11.37
2018-05-14T17:56:37.880Z,9.10
2018-05-14T17:59:05.560Z,11.00
2018-05-14T18:01:33.826Z,13.17
2018-05-14T18:04:02.069Z,10.30
2018-05-14T18:06:29.857Z,10.03
2018-05-14T18:08:57.330Z,7.93
2018-05-14T18:11:25.592Z,8.27
2018-05-14T18:13:53.356Z,11.60
2018-05-14T18:16:20.926Z,9.33
2018-05-14T18:18:49.170Z,12.73
2018-05-14T18:21:22.593Z,8.07
2018-05-14T18:23:50.835Z,8.33
2018-05-14T18:26:18.320Z,10.27
2018-05-14T18:28:48.862Z,8.90
2018-05-14T18:31:22.948Z,9.20
2018-05-14T18:33:54.244Z,9.17
2018-05-14T18:36:21.756Z,8.17
2018-05-14T18:38:49.380Z,10.03
2018-05-14T18:41:17.500Z,10.43
2018-05-14T18:43:45.777Z,12.07
2018-05-14T18:46:14.063Z,14.13
2018-05-14T18:48:42.345Z,8.77
2018-05-14T18:51:10.713Z,11.43
2018-05-14T18:53:38.990Z,17.13
2018-05-14T18:56:07.473Z,19.67
2018-05-14T18:58:35.718Z,15.30
2018-05-14T19:01:03.197Z,24.50
2018-05-14T19:03:31.584Z,16.73
2018-05-14T19:05:59.894Z,24.43
2018-05-14T19:08:27.710Z,16.37
2018-05-14T19:11:00.987Z,16.93
2018-05-14T19:13:28.981Z,15.40
2018-05-14T19:16:02.979Z,20.93
2018-05-14T19:18:30.747Z,17.70
2018-05-14T19:20:58.253Z,17.00
2018-05-14T19:23:31.513Z,15.90
2018-05-14T19:26:00.021Z,8.90
2018-05-14T19:28:33.796Z,14.73
2018-05-14T19:31:02.199Z,10.97
2018-05-14T19:33:35.408Z,12.53
2018-05-14T19:36:03.107Z,13.03
2018-05-14T19:38:31.297Z,13.07
2018-05-14T19:40:59.620Z,17.33
2018-05-14T19:43:27.131Z,13.50
2018-05-14T19:45:54.643Z,14.57
2018-05-14T19:48:22.120Z,15.60
2018-05-14T19:50:49.753Z,14.43
2018-05-14T19:53:17.971Z,15.40
2018-05-14T19:55:45.585Z,15.10
2018-05-14T19:58:13.074Z,18.20
2018-05-14T20:00:40.551Z,13.57
2018-05-14T20:03:08.116Z,13.43
2018-05-14T20:05:35.606Z,14.47
2018-05-14T20:08:03.146Z,16.67
2018-05-14T20:10:31.495Z,25.70
2018-05-14T20:12:59.128Z,16.73
2018-05-14T20:15:26.541Z,22.77
2018-05-14T20:17:54.813Z,20.83
2018-05-14T20:20:22.437Z,15.17
2018-05-14T20:22:50.037Z,18.23
2018-05-14T20:25:18.709Z,21.87
2018-05-14T20:27:46.270Z,21.53
2018-05-14T20:30:15.018Z,21.10
2018-05-14T20:32:42.626Z,20.70
2018-05-14T20:35:10.992Z,16.50
2018-05-14T20:37:39.273Z,16.97
2018-05-14T20:40:07.238Z,16.70
2018-05-14T20:42:35.528Z,14.60
2018-05-14T20:45:03.030Z,18.87
2018-05-14T20:47:30.674Z,23.90
2018-05-14T20:49:58.148Z,18.03
2018-05-14T20:52:25.695Z,16.80
2018-05-14T20:54:53.287Z,19.20
2018-05-14T20:57:20.870Z,14.33
2018-05-14T20:59:49.151Z,20.50
2018-05-14T21:02:16.732Z,17.67
2018-05-14T21:04:44.213Z,17.93
2018-05-14T21:07:11.684Z,27.60
2018-05-14T21:09:39.312Z,16.53
2018-05-14T21:12:06.838Z,24.93
2018-05-14T21:14:35.076Z,28.73
2018-05-14T21:17:03.706Z,24.60
2018-05-14T21:19:31.968Z,20.83
2018-05-14T21:21:59.530Z,18.23
2018-05-14T21:24:27.838Z,17.93
2018-05-14T21:26:55.317Z,23.17
2018-05-14T21:29:22.816Z,23.23
2018-05-14T21:31:50.905Z,16.47
2018-05-14T21:34:19.259Z,21.87
2018-05-14T21:36:46.831Z,22.60
2018-05-14T21:39:15.210Z,26.23
2018-05-14T21:41:43.453Z,19.33
2018-05-14T21:44:10.947Z,22.13
2018-05-14T21:46:38.933Z,23.43
2018-05-14T21:49:06.418Z,20.97
2018-05-14T21:51:33.917Z,24.90
2018-05-14T21:54:01.780Z,28.50
2018-05-14T21:56:29.350Z,20.27
2018-05-14T21:58:57.598Z,26.97
2018-05-14T22:01:26.206Z,20.40
2018-05-14T22:03:54.573Z,20.87
2018-05-14T22:06:22.329Z,15.80
2018-05-14T22:08:49.927Z,26.87
2018-05-14T22:11:17.816Z,20.83
2018-05-14T22:13:45.389Z,20.03
2018-05-14T22:16:12.888Z,22.67
2018-05-14T22:18:40.448Z,23.13
2018-05-14T22:21:08.832Z,25.53
2018-05-14T22:23:37.105Z,28.27
2018-05-14T22:26:05.583Z,26.97
2018-05-14T22:28:33.244Z,28.67
2018-05-14T22:31:00.904Z,26.67
2018-05-14T22:33:29.483Z,25.07
2018-05-14T22:35:57.759Z,23.13
2018-05-14T22:38:25.320Z,27.87
2018-05-14T22:40:52.918Z,18.30
2018-05-14T22:43:20.585Z,25.90
2018-05-14T22:45:48.113Z,19.93
2018-05-14T22:48:16.684Z,23.13
2018-05-14T22:50:44.265Z,27.10
2018-05-14T22:53:12.707Z,27.20
2018-05-14T22:55:40.256Z,19.37
2018-05-14T22:58:07.732Z,22.13
2018-05-14T23:00:35.685Z,18.57
2018-05-14T23:03:03.483Z,19.63
2018-05-14T23:05:31.753Z,22.60
2018-05-14T23:08:00.134Z,27.53
2018-05-14T23:10:28.425Z,23.20
2018-05-14T23:12:55.907Z,25.30
2018-05-14T23:15:23.538Z,22.93
2018-05-14T23:17:52.008Z,29.50
2018-05-14T23:20:20.388Z,23.47
2018-05-14T23:22:47.964Z,20.13
2018-05-14T23:25:15.728Z,24.03
2018-05-14T23:27:44.008Z,24.73
2018-05-14T23:30:12.556Z,20.90
2018-05-14T23:32:40.368Z,16.63
2018-05-14T23:35:07.893Z,16.73
2018-05-14T23:37:35.657Z,19.37
2018-05-14T23:40:03.932Z,19.93
2018-05-14T23:42:32.168Z,19.93
2018-05-14T23:44:59.697Z,20.50
2018-05-14T23:47:27.230Z,15.17
2018-05-14T23:49:55.699Z,17.40
2018-05-14T23:52:23.180Z,16.90
2018-05-14T23:54:51.446Z,20.03
2018-05-14T23:57:20.116Z,21.20
2018-05-14T23:59:47.688Z,23.13
